createdAt,value
2017-12-23T00:01:50.379Z,57.53
2017-12-23T00:04:17.838Z,62.83
2017-12-23T00:06:45.276Z,72.00
2017-12-23T00:09:12.777Z,142.62
2017-12-23T00:11:40.214Z,59.92
2017-12-23T00:14:07.666Z,55.35
2017-12-23T00:16:35.613Z,48.08
2017-12-23T00:19:03.054Z,48.10
2017-12-23T00:21:30.497Z,50.72
2017-12-23T00:23:57.965Z,51.03
2017-12-23T00:26:25.405Z,50.40
2017-12-23T00:28:55.002Z,54.65
2017-12-23T00:31:23.203Z,65.72
2017-12-23T00:33:50.804Z,71.28
2017-12-23T00:36:18.301Z,62.05
2017-12-23T00:38:45.717Z,58.95
2017-12-23T00:41:13.157Z,55.50
2017-12-23T00:43:40.626Z,55.72
2017-12-23T00:46:08.064Z,53.05
2017-12-23T00:48:35.532Z,52.62
2017-12-23T00:51:03.808Z,52.45
2017-12-23T00:53:31.285Z,60.75
2017-12-23T00:55:58.728Z,48.47
2017-12-23T00:58:26.189Z,45.33
2017-12-23T01:00:53.652Z,50.42
2017-12-23T01:03:21.101Z,60.47
2017-12-23T01:05:49.058Z,52.80
2017-12-23T01:08:16.501Z,54.22
2017-12-23T01:10:43.946Z,49.83
2017-12-23T01:13:12.688Z,53.60
2017-12-23T01:15:40.127Z,52.78
2017-12-23T01:18:07.587Z,48.17
2017-12-23T01:20:35.505Z,51.78
2017-12-23T01:23:15.660Z,60.75
2017-12-23T01:25:43.177Z,77.12
2017-12-23T01:28:10.629Z,60.97
2017-12-23T01:30:39.340Z,65.68
2017-12-23T01:33:06.785Z,60.65
2017-12-23T01:35:34.322Z,56.00
2017-12-23T01:38:01.929Z,51.00
2017-12-23T01:40:29.369Z,51.30
2017-12-23T01:42:56.962Z,47.70
2017-12-23T01:45:25.350Z,46.75
2017-12-23T01:47:52.807Z,48.20
2017-12-23T01:50:20.352Z,47.85
2017-12-23T01:52:51.818Z,41.10
2017-12-23T01:55:19.318Z,43.38
2017-12-23T01:57:46.756Z,41.22
2017-12-23T02:00:14.986Z,45.38
2017-12-23T02:02:42.424Z,51.85
2017-12-23T02:05:09.912Z,42.88
2017-12-23T02:07:37.344Z,34.80
2017-12-23T02:10:04.781Z,37.35
2017-12-23T02:12:32.341Z,28.87
2017-12-23T02:14:59.778Z,34.00
2017-12-23T02:17:27.986Z,32.03
2017-12-23T02:19:55.522Z,30.40
2017-12-23T02:22:22.961Z,32.03
2017-12-23T02:24:52.242Z,34.60
2017-12-23T02:27:19.710Z,31.90
2017-12-23T02:29:47.149Z,35.65
2017-12-23T02:32:14.755Z,32.15
2017-12-23T02:34:42.231Z,36.30
2017-12-23T02:37:09.669Z,34.35
2017-12-23T02:39:54.798Z,35.92
2017-12-23T02:42:22.245Z,32.40
2017-12-23T02:44:49.685Z,26.83
2017-12-23T02:47:17.272Z,33.88
2017-12-23T02:49:44.732Z,31.60
2017-12-23T02:52:12.176Z,31.92
2017-12-23T02:54:55.713Z,33.78
2017-12-23T02:57:23.148Z,27.65
2017-12-23T02:59:50.589Z,31.17
2017-12-23T03:02:18.223Z,35.28
2017-12-23T03:04:46.461Z,27.95
2017-12-23T03:07:13.915Z,29.12
2017-12-23T03:09:41.345Z,34.08
2017-12-23T03:12:08.815Z,30.62
2017-12-23T03:14:37.260Z,37.55
2017-12-23T03:17:05.469Z,35.30
2017-12-23T03:19:33.256Z,41.28
2017-12-23T03:22:00.698Z,32.92
2017-12-23T03:24:29.031Z,40.20
2017-12-23T03:26:59.813Z,31.98
2017-12-23T03:29:27.284Z,39.10
2017-12-23T03:31:54.730Z,40.20
2017-12-23T03:34:22.197Z,38.33
2017-12-23T03:36:49.794Z,39.42
2017-12-23T03:39:17.248Z,43.22
2017-12-23T03:41:44.681Z,41.70
2017-12-23T03:44:12.153Z,43.75
2017-12-23T03:46:39.588Z,46.95
2017-12-23T03:49:07.058Z,49.00
2017-12-23T03:51:34.505Z,45.55
2017-12-23T03:54:02.109Z,50.83
2017-12-23T03:56:30.304Z,41.97
2017-12-23T03:58:57.760Z,40.50
2017-12-23T04:01:25.192Z,47.42
2017-12-23T04:04:01.329Z,51.13
2017-12-23T04:06:28.772Z,44.55
2017-12-23T04:08:56.372Z,40.78
2017-12-23T04:11:24.595Z,43.28
2017-12-23T04:13:52.029Z,40.25
2017-12-23T04:16:19.536Z,43.75
2017-12-23T04:18:47.001Z,37.50
2017-12-23T04:21:14.437Z,38.20
2017-12-23T04:23:41.921Z,38.05
2017-12-23T04:26:10.133Z,46.67
2017-12-23T04:28:42.634Z,40.45
2017-12-23T04:31:24.992Z,40.97
2017-12-23T04:33:53.237Z,44.83
2017-12-23T04:36:20.677Z,49.78
2017-12-23T04:38:48.117Z,47.83
2017-12-23T04:41:15.589Z,46.80
2017-12-23T04:43:43.229Z,46.78
2017-12-23T04:46:10.669Z,51.97
2017-12-23T04:48:38.105Z,54.72
2017-12-23T04:51:06.343Z,45.92
2017-12-23T04:53:33.772Z,42.80
2017-12-23T04:56:02.237Z,40.45
2017-12-23T04:58:29.700Z,38.50
2017-12-23T05:00:57.306Z,42.13
2017-12-23T05:03:24.748Z,38.92
2017-12-23T05:05:52.217Z,53.35
2017-12-23T05:08:19.685Z,41.28
2017-12-23T05:10:47.126Z,38.45
2017-12-23T05:13:14.588Z,43.65
2017-12-23T05:15:42.034Z,40.05
2017-12-23T05:18:09.621Z,48.40
2017-12-23T05:20:37.060Z,49.22
2017-12-23T05:23:09.421Z,40.20
2017-12-23T05:25:36.940Z,37.03
2017-12-23T05:28:04.382Z,46.22
2017-12-23T05:30:32.613Z,37.47
2017-12-23T05:33:01.019Z,47.88
2017-12-23T05:35:28.549Z,42.45
2017-12-23T05:37:55.981Z,41.53
2017-12-23T05:40:23.458Z,45.25
2017-12-23T05:42:50.892Z,49.38
2017-12-23T05:45:18.356Z,45.88
2017-12-23T05:47:46.774Z,44.70
2017-12-23T05:50:19.128Z,48.55
2017-12-23T05:52:46.569Z,49.95
2017-12-23T05:55:14.088Z,50.83
2017-12-23T05:57:42.296Z,50.42
2017-12-23T06:00:09.773Z,55.85
2017-12-23T06:02:37.218Z,51.90
2017-12-23T06:05:04.653Z,61.95
2017-12-23T06:07:32.121Z,50.83
2017-12-23T06:10:15.638Z,57.38
2017-12-23T06:12:43.964Z,56.05
2017-12-23T06:15:11.408Z,55.53
2017-12-23T06:17:39.285Z,55.97
2017-12-23T06:20:06.731Z,57.83
2017-12-23T06:22:34.174Z,64.25
2017-12-23T06:25:01.855Z,66.45
2017-12-23T06:27:29.320Z,59.33
2017-12-23T06:29:56.786Z,70.18
2017-12-23T06:32:24.414Z,59.75
2017-12-23T06:34:51.853Z,57.80
2017-12-23T06:37:20.061Z,59.85
2017-12-23T06:39:47.570Z,63.40
2017-12-23T06:42:15.005Z,56.22
2017-12-23T06:44:42.446Z,45.03
2017-12-23T06:47:10.137Z,54.63
2017-12-23T06:49:37.605Z,50.35
2017-12-23T06:52:05.827Z,45.65
2017-12-23T06:54:33.256Z,51.13
2017-12-23T06:57:00.757Z,58.13
2017-12-23T06:59:34.273Z,50.20
2017-12-23T07:02:01.733Z,58.50
2017-12-23T07:04:46.153Z,48.45
2017-12-23T07:07:13.589Z,55.78
2017-12-23T07:09:41.028Z,51.28
2017-12-23T07:12:10.292Z,57.80
2017-12-23T07:14:49.921Z,64.60
2017-12-23T07:17:17.384Z,59.88
2017-12-23T07:19:44.833Z,54.25
2017-12-23T07:22:12.490Z,68.03
2017-12-23T07:24:40.152Z,55.00
2017-12-23T07:27:07.875Z,58.55
2017-12-23T07:29:36.109Z,61.95
2017-12-23T07:32:04.537Z,65.35
2017-12-23T07:34:32.741Z,63.03
2017-12-23T07:37:00.338Z,58.75
2017-12-23T07:39:27.796Z,67.43
2017-12-23T07:41:55.280Z,53.53
2017-12-23T07:44:24.509Z,45.35
2017-12-23T07:46:51.950Z,53.60
2017-12-23T07:49:20.185Z,48.03
2017-12-23T07:51:47.829Z,43.15
2017-12-23T07:54:18.279Z,47.88
2017-12-23T07:56:45.726Z,46.05
2017-12-23T07:59:13.198Z,41.25
2017-12-23T08:01:40.672Z,46.55
2017-12-23T08:04:08.145Z,49.08
2017-12-23T08:06:36.349Z,43.70
2017-12-23T08:09:04.778Z,46.90
2017-12-23T08:11:32.379Z,40.05
2017-12-23T08:13:59.811Z,41.92
2017-12-23T08:16:28.116Z,44.72
2017-12-23T08:18:55.556Z,42.88
2017-12-23T08:21:23.793Z,45.58
2017-12-23T08:23:51.234Z,48.33
2017-12-23T08:26:18.672Z,43.87
2017-12-23T08:28:46.324Z,53.92
2017-12-23T08:31:13.770Z,49.50
2017-12-23T08:33:41.261Z,49.47
2017-12-23T08:36:08.854Z,56.30
2017-12-23T08:38:36.309Z,49.95
2017-12-23T08:41:10.531Z,57.17
2017-12-23T08:43:37.969Z,52.38
2017-12-23T08:46:05.542Z,59.92
2017-12-23T08:48:32.985Z,58.15
2017-12-23T08:51:00.434Z,55.90
2017-12-23T08:53:29.950Z,58.55
2017-12-23T08:55:57.384Z,54.22
2017-12-23T08:58:24.862Z,52.70
2017-12-23T09:00:52.372Z,78.55
2017-12-23T09:03:20.837Z,64.47
2017-12-23T09:05:48.271Z,60.92
2017-12-23T09:08:15.912Z,60.28
2017-12-23T09:10:43.353Z,65.65
2017-12-23T09:13:10.823Z,60.88
2017-12-23T09:15:38.360Z,66.78
2017-12-23T09:18:05.820Z,66.78
2017-12-23T09:20:33.298Z,74.43
2017-12-23T09:23:06.786Z,68.95
2017-12-23T09:25:34.658Z,69.87
2017-12-23T09:28:02.186Z,71.22
2017-12-23T09:30:30.390Z,81.80
2017-12-23T09:32:57.854Z,69.78
2017-12-23T09:35:25.365Z,109.57
2017-12-23T09:37:53.609Z,101.72
2017-12-23T09:40:21.065Z,101.60
2017-12-23T09:42:48.682Z,82.22
2017-12-23T09:45:17.414Z,63.95
2017-12-23T09:47:44.893Z,96.57
2017-12-23T09:50:12.332Z,99.85
2017-12-23T09:52:39.781Z,60.35
2017-12-23T09:55:07.269Z,63.87
2017-12-23T09:57:34.709Z,66.53
2017-12-23T10:00:02.345Z,59.55
2017-12-23T10:02:29.782Z,53.05
2017-12-23T10:04:57.213Z,60.28
2017-12-23T10:07:25.450Z,55.58
2017-12-23T10:09:53.422Z,59.75
2017-12-23T10:12:30.812Z,52.40
2017-12-23T10:14:58.286Z,47.15
2017-12-23T10:17:25.725Z,51.65
2017-12-23T10:19:53.173Z,44.92
2017-12-23T10:22:21.701Z,47.65
2017-12-23T10:24:49.148Z,44.47
2017-12-23T10:27:16.701Z,48.72
2017-12-23T10:29:44.201Z,45.33
2017-12-23T10:32:11.642Z,47.08
2017-12-23T10:34:39.853Z,56.88
2017-12-23T10:37:07.454Z,49.22
2017-12-23T10:39:34.916Z,38.53
2017-12-23T10:42:02.343Z,48.63
2017-12-23T10:44:29.816Z,75.60
2017-12-23T10:46:57.260Z,48.45
2017-12-23T10:49:24.720Z,40.20
2017-12-23T10:51:52.163Z,38.33
2017-12-23T10:54:19.766Z,30.42
2017-12-23T10:56:47.197Z,33.20
2017-12-23T10:59:16.656Z,33.55
2017-12-23T11:01:44.877Z,38.45
2017-12-23T11:04:12.348Z,31.92
2017-12-23T11:06:39.814Z,32.80
2017-12-23T11:09:07.249Z,32.60
2017-12-23T11:11:35.120Z,29.33
2017-12-23T11:14:02.702Z,26.42
2017-12-23T11:16:30.165Z,29.65
2017-12-23T11:18:57.608Z,28.12
2017-12-23T11:21:26.393Z,26.12
2017-12-23T11:23:53.837Z,30.62
2017-12-23T11:26:21.304Z,26.17
2017-12-23T11:28:49.178Z,27.42
2017-12-23T11:31:16.616Z,26.45
2017-12-23T11:33:44.054Z,26.60
2017-12-23T11:36:14.005Z,24.10
2017-12-23T11:38:41.462Z,18.23
2017-12-23T11:41:08.885Z,17.55
2017-12-23T11:43:36.431Z,20.92
2017-12-23T11:46:03.873Z,23.33
2017-12-23T11:48:32.169Z,15.70
2017-12-23T11:50:59.609Z,39.15
2017-12-23T11:53:27.853Z,19.42
2017-12-23T11:55:55.289Z,26.60
2017-12-23T11:58:22.752Z,17.85
2017-12-23T12:00:50.197Z,16.60
2017-12-23T12:03:17.666Z,16.20
2017-12-23T12:05:45.108Z,24.30
2017-12-23T12:08:12.697Z,24.75
2017-12-23T12:10:40.160Z,33.20
2017-12-23T12:15:59.237Z,40.92
2017-12-23T12:18:26.734Z,37.15
2017-12-23T12:20:55.024Z,31.23
2017-12-23T12:23:24.372Z,22.00
2017-12-23T12:25:51.849Z,26.67
2017-12-23T12:28:19.289Z,22.08
2017-12-23T12:30:46.761Z,17.23
2017-12-23T12:33:14.220Z,8.77
2017-12-23T12:35:41.654Z,9.23
2017-12-23T12:38:09.241Z,7.03
2017-12-23T12:40:37.441Z,6.05
2017-12-23T12:43:04.901Z,5.00
2017-12-23T12:45:32.332Z,5.00
2017-12-23T12:48:03.045Z,4.20
2017-12-23T12:50:30.478Z,4.35
2017-12-23T12:52:57.910Z,6.12
2017-12-23T12:55:25.809Z,8.40
2017-12-23T12:57:53.233Z,9.75
2017-12-23T13:00:20.676Z,13.02
2017-12-23T13:02:48.906Z,15.27
2017-12-23T13:05:16.369Z,7.72
2017-12-23T13:07:43.802Z,7.35
2017-12-23T13:10:11.309Z,8.60
2017-12-23T13:12:40.501Z,19.00
2017-12-23T13:15:08.072Z,8.02
2017-12-23T13:17:36.292Z,7.10
2017-12-23T13:20:03.766Z,22.10
2017-12-23T13:22:31.206Z,7.00
2017-12-23T13:24:58.713Z,8.90
2017-12-23T13:27:26.145Z,7.03
2017-12-23T13:29:53.649Z,8.02
2017-12-23T13:32:21.101Z,7.90
2017-12-23T13:34:49.306Z,6.87
2017-12-23T13:37:16.778Z,10.55
2017-12-23T13:39:47.858Z,7.72
2017-12-23T13:42:15.289Z,9.63
2017-12-23T13:44:42.730Z,11.95
2017-12-23T13:47:11.197Z,9.07
2017-12-23T13:49:38.637Z,9.40
2017-12-23T13:52:06.295Z,9.40
2017-12-23T13:54:34.495Z,8.90
2017-12-23T13:57:01.925Z,10.10
2017-12-23T13:59:30.152Z,9.30
2017-12-23T14:01:57.581Z,9.25
2017-12-23T14:04:25.349Z,10.00
2017-12-23T14:06:52.777Z,9.40
2017-12-23T14:09:20.981Z,9.32
2017-12-23T14:11:49.237Z,11.98
2017-12-23T14:14:16.721Z,12.57
2017-12-23T14:16:44.884Z,19.87
2017-12-23T14:19:12.645Z,13.00
2017-12-23T14:21:40.085Z,12.30
2017-12-23T14:24:08.307Z,11.05
2017-12-23T14:26:35.859Z,10.55
2017-12-23T14:29:03.299Z,12.55
2017-12-23T14:31:32.673Z,13.25
2017-12-23T14:34:00.879Z,15.70
2017-12-23T14:36:28.445Z,18.83
2017-12-23T14:38:55.889Z,13.10
2017-12-23T14:41:24.357Z,15.90
2017-12-23T14:43:51.797Z,12.82
2017-12-23T14:46:20.046Z,11.40
2017-12-23T14:48:47.482Z,13.88
2017-12-23T14:51:14.923Z,13.85
2017-12-23T14:53:42.673Z,12.23
2017-12-23T14:56:10.120Z,13.40
2017-12-23T14:58:42.425Z,15.68
2017-12-23T15:01:09.882Z,66.57
2017-12-23T15:03:37.316Z,20.73
2017-12-23T15:06:04.824Z,21.85
2017-12-23T15:08:32.292Z,16.25
2017-12-23T15:10:59.738Z,20.52
2017-12-23T15:13:27.314Z,22.58
2017-12-23T15:15:54.748Z,13.10
2017-12-23T15:18:23.173Z,20.00
2017-12-23T15:20:51.546Z,12.82
2017-12-23T15:23:19.822Z,20.62
2017-12-23T15:25:47.457Z,12.93
2017-12-23T15:28:14.889Z,14.25
2017-12-23T15:30:42.336Z,12.80
2017-12-23T15:33:09.858Z,15.27
2017-12-23T15:35:45.898Z,16.92
2017-12-23T15:38:13.361Z,23.53
2017-12-23T15:40:40.794Z,18.02
2017-12-23T15:43:08.267Z,14.68
2017-12-23T15:45:35.708Z,17.62
2017-12-23T15:48:03.193Z,25.65
2017-12-23T15:50:30.637Z,19.12
2017-12-23T15:53:11.073Z,19.40
2017-12-23T15:55:38.521Z,16.77
2017-12-23T15:58:06.001Z,16.73
2017-12-23T16:00:33.445Z,18.15
2017-12-23T16:03:00.893Z,18.98
2017-12-23T16:05:28.361Z,18.83
2017-12-23T16:07:55.870Z,19.58
2017-12-23T16:10:24.076Z,22.52
2017-12-23T16:12:53.089Z,24.30
2017-12-23T16:15:20.578Z,28.12
2017-12-23T16:17:48.034Z,30.85
2017-12-23T16:20:15.509Z,22.40
2017-12-23T16:22:42.989Z,15.80
2017-12-23T16:25:11.768Z,19.77
2017-12-23T16:27:43.913Z,24.90
2017-12-23T16:30:11.359Z,18.83
2017-12-23T16:32:38.800Z,27.65
2017-12-23T16:35:06.449Z,46.35
2017-12-23T16:37:33.891Z,24.95
2017-12-23T16:40:01.334Z,39.95
2017-12-23T16:42:29.560Z,20.77
2017-12-23T16:44:57.045Z,23.87
2017-12-23T16:47:24.481Z,19.58
2017-12-23T16:49:51.976Z,36.72
2017-12-23T16:52:20.243Z,18.40
2017-12-23T16:55:00.572Z,18.17
2017-12-23T16:57:28.021Z,87.82
2017-12-23T16:59:59.470Z,19.92
2017-12-23T17:02:26.925Z,22.05
2017-12-23T17:04:57.376Z,28.08
2017-12-23T17:07:25.004Z,18.65
2017-12-23T17:09:52.439Z,18.45
2017-12-23T17:12:20.954Z,18.83
2017-12-23T17:17:41.939Z,23.85
2017-12-23T17:20:10.166Z,53.65
2017-12-23T17:22:37.741Z,36.08
2017-12-23T17:25:05.176Z,27.23
2017-12-23T17:27:32.836Z,28.02
2017-12-23T17:30:12.073Z,35.13
2017-12-23T17:32:39.577Z,16.65
2017-12-23T17:35:07.789Z,21.67
2017-12-23T17:37:35.264Z,20.37
2017-12-23T17:40:02.701Z,25.95
2017-12-23T17:42:30.901Z,18.90
2017-12-23T17:44:58.485Z,19.02
2017-12-23T17:47:25.926Z,16.98
2017-12-23T17:49:53.357Z,18.65
2017-12-23T17:52:20.835Z,21.45
2017-12-23T17:54:48.293Z,22.25
2017-12-23T17:57:15.728Z,18.77
2017-12-23T17:59:43.333Z,17.90
2017-12-23T18:02:10.770Z,22.30
2017-12-23T18:04:38.208Z,18.05
2017-12-23T18:07:05.685Z,18.65
2017-12-23T18:09:33.167Z,20.42
2017-12-23T18:12:00.610Z,14.32
2017-12-23T18:14:28.045Z,15.02
2017-12-23T18:16:55.821Z,29.17
2017-12-23T18:19:23.268Z,15.55
2017-12-23T18:21:51.727Z,16.08
2017-12-23T18:24:19.159Z,14.00
2017-12-23T18:26:47.364Z,16.67
2017-12-23T18:29:14.909Z,16.58
2017-12-23T18:31:42.416Z,15.90
2017-12-23T18:34:09.857Z,15.00
2017-12-23T18:36:37.520Z,15.70
2017-12-23T18:39:04.954Z,15.98
2017-12-23T18:41:32.426Z,15.32
2017-12-23T18:43:59.868Z,15.50
2017-12-23T18:46:27.445Z,16.05
2017-12-23T18:48:54.889Z,14.00
2017-12-23T18:51:22.323Z,17.05
2017-12-23T18:53:49.910Z,17.85
2017-12-23T18:56:18.117Z,16.00
2017-12-23T18:59:00.297Z,17.02
2017-12-23T19:01:28.517Z,20.17
2017-12-23T19:03:56.180Z,22.90
2017-12-23T19:06:24.403Z,21.70
2017-12-23T19:08:51.848Z,24.33
2017-12-23T19:11:19.545Z,17.58
2017-12-23T19:13:47.013Z,16.15
2017-12-23T19:16:26.222Z,16.83
2017-12-23T19:18:53.674Z,29.42
2017-12-23T19:21:21.570Z,23.30
2017-12-23T19:23:49.077Z,32.97
2017-12-23T19:26:17.279Z,27.30
2017-12-23T19:28:48.569Z,19.52
2017-12-23T19:31:16.032Z,17.27
2017-12-23T19:33:44.251Z,23.92
2017-12-23T19:36:11.737Z,23.10
2017-12-23T19:38:40.136Z,20.40
2017-12-23T19:41:07.754Z,25.70
2017-12-23T19:43:36.672Z,17.05
2017-12-23T19:46:04.106Z,17.10
2017-12-23T19:48:31.543Z,14.75
2017-12-23T19:50:59.006Z,24.48
2017-12-23T19:53:26.495Z,27.27
2017-12-23T19:55:53.929Z,17.20
2017-12-23T19:58:21.365Z,20.48
2017-12-23T20:00:49.416Z,19.73
2017-12-23T20:03:17.653Z,18.00
2017-12-23T20:05:45.112Z,29.45
2017-12-23T20:08:12.558Z,23.17
2017-12-23T20:10:40.017Z,18.73
2017-12-23T20:13:07.465Z,18.12
2017-12-23T20:15:35.068Z,17.80
2017-12-23T20:18:02.504Z,25.95
2017-12-23T20:20:29.937Z,17.80
2017-12-23T20:22:57.445Z,21.48
2017-12-23T20:25:27.122Z,17.45
2017-12-23T20:27:54.576Z,17.20
2017-12-23T20:30:22.018Z,30.27
2017-12-23T20:32:49.480Z,25.52
2017-12-23T20:35:16.954Z,19.50
2017-12-23T20:37:44.433Z,15.40
2017-12-23T20:40:11.878Z,15.35
2017-12-23T20:42:40.270Z,17.85
2017-12-23T20:45:12.752Z,16.02
2017-12-23T20:47:40.241Z,15.45
2017-12-23T20:50:07.692Z,15.80
2017-12-23T20:52:35.932Z,15.15
2017-12-23T20:55:08.713Z,15.18
2017-12-23T20:57:36.166Z,14.05
2017-12-23T21:00:03.619Z,14.82
2017-12-23T21:02:31.585Z,13.68
2017-12-23T21:04:59.052Z,13.32
2017-12-23T21:07:26.494Z,13.38
2017-12-23T21:09:53.976Z,13.30
2017-12-23T21:12:21.427Z,13.95
2017-12-23T21:14:48.872Z,13.43
2017-12-23T21:17:16.429Z,27.70
2017-12-23T21:19:43.873Z,102.68
2017-12-23T21:22:11.337Z,96.00
2017-12-23T21:24:38.825Z,35.00
2017-12-23T21:27:06.310Z,15.27
2017-12-23T21:29:33.734Z,20.40
2017-12-23T21:32:01.210Z,15.82
2017-12-23T21:34:28.961Z,20.10
2017-12-23T21:36:56.401Z,19.95
2017-12-23T21:39:23.873Z,21.25
2017-12-23T21:41:51.339Z,23.73
2017-12-23T21:44:18.796Z,21.73
2017-12-23T21:46:46.241Z,16.52
2017-12-23T21:49:13.790Z,15.85
2017-12-23T21:51:47.316Z,14.45
2017-12-23T21:54:14.927Z,19.30
2017-12-23T21:56:42.382Z,21.08
2017-12-23T21:59:09.887Z,20.08
2017-12-23T22:01:37.324Z,17.60
2017-12-23T22:04:04.809Z,16.00
2017-12-23T22:06:32.293Z,19.70
2017-12-23T22:09:00.491Z,16.20
2017-12-23T22:11:28.160Z,20.92
2017-12-23T22:13:56.590Z,17.23
2017-12-23T22:16:24.044Z,15.43
2017-12-23T22:18:51.509Z,14.27
2017-12-23T22:21:18.977Z,15.82
2017-12-23T22:23:47.209Z,16.92
2017-12-23T22:26:14.802Z,15.52
2017-12-23T22:28:43.180Z,14.27
2017-12-23T22:31:10.629Z,15.10
2017-12-23T22:33:40.627Z,16.98
2017-12-23T22:36:08.076Z,14.38
2017-12-23T22:38:42.293Z,13.80
2017-12-23T22:41:09.934Z,15.18
2017-12-23T22:43:46.324Z,14.32
2017-12-23T22:46:13.798Z,13.55
2017-12-23T22:48:42.681Z,15.02
2017-12-23T22:51:10.155Z,13.98
2017-12-23T22:53:38.557Z,15.80
2017-12-23T22:56:09.197Z,14.90
2017-12-23T22:58:38.441Z,15.38
2017-12-23T23:01:07.091Z,14.57
2017-12-23T23:03:34.565Z,15.90
2017-12-23T23:06:02.105Z,15.35
2017-12-23T23:08:30.545Z,15.18
2017-12-23T23:10:58.013Z,16.65
2017-12-23T23:13:39.128Z,15.13
2017-12-23T23:16:06.595Z,16.37
2017-12-23T23:18:34.030Z,14.90
2017-12-23T23:21:02.289Z,15.00
2017-12-23T23:23:33.796Z,16.30
2017-12-23T23:26:01.410Z,18.35
2017-12-23T23:28:28.877Z,15.85
2017-12-23T23:30:57.320Z,15.60
2017-12-23T23:33:24.766Z,15.57
2017-12-23T23:35:52.518Z,15.23
2017-12-23T23:38:20.796Z,14.95
2017-12-23T23:40:48.344Z,14.65
2017-12-23T23:43:16.124Z,14.30
2017-12-23T23:45:43.569Z,15.10
2017-12-23T23:48:11.009Z,13.65
2017-12-23T23:50:38.482Z,16.87
2017-12-23T23:53:05.972Z,14.77
2017-12-23T23:55:33.402Z,13.43
2017-12-23T23:58:00.937Z,13.88
